sensor_id;sensor_type;location;lat;lon;timestamp;pressure;altitude;pressure_sealevel;temperature;humidity
63654;BME280;49809;47.418;19.080;2022-09-27T00:00:43;99311.66;;;11.23;100.00
63654;BME280;49809;47.418;19.080;2022-09-27T00:03:52;99314.34;;;11.18;100.00
63654;BME280;49809;47.418;19.080;2022-09-27T00:07:03;99314.87;;;11.15;100.00
63654;BME280;49809;47.418;19.080;2022-09-27T00:10:26;99302.16;;;11.17;100.00
63654;BME280;49809;47.418;19.080;2022-09-27T00:13:36;99296.09;;;11.16;100.00
63654;BME280;49809;47.418;19.080;2022-09-27T00:16:42;99292.63;;;11.16;100.00
63654;BME280;49809;47.418;19.080;2022-09-27T00:19:46;99290.00;;;11.16;100.00
63654;BME280;49809;47.418;19.080;2022-09-27T00:22:50;99289.41;;;11.19;100.00
63654;BME280;49809;47.418;19.080;2022-09-27T00:25:59;99287.81;;;11.23;100.00
63654;BME280;49809;47.418;19.080;2022-09-27T00:29:05;99289.16;;;11.20;100.00
63654;BME280;49809;47.418;19.080;2022-09-27T00:32:09;99282.00;;;11.21;100.00
63654;BME280;49809;47.418;19.080;2022-09-27T00:35:33;99274.56;;;11.23;100.00
63654;BME280;49809;47.418;19.080;2022-09-27T00:38:39;99275.13;;;11.20;100.00
63654;BME280;49809;47.418;19.080;2022-09-27T00:41:48;99275.69;;;11.17;100.00
63654;BME280;49809;47.418;19.080;2022-09-27T00:45:14;99278.59;;;11.15;100.00
63654;BME280;49809;47.418;19.080;2022-09-27T00:48:23;99272.84;;;11.08;100.00
63654;BME280;49809;47.418;19.080;2022-09-27T00:51:30;99278.47;;;11.02;100.00
63654;BME280;49809;47.418;19.080;2022-09-27T00:54:40;99274.28;;;10.96;100.00
63654;BME280;49809;47.418;19.080;2022-09-27T00:58:04;99268.53;;;10.88;100.00
63654;BME280;49809;47.418;19.080;2022-09-27T01:01:09;99261.97;;;10.81;100.00
63654;BME280;49809;47.418;19.080;2022-09-27T01:04:17;99262.81;;;10.71;100.00
63654;BME280;49809;47.418;19.080;2022-09-27T01:07:24;99253.34;;;10.65;100.00
63654;BME280;49809;47.418;19.080;2022-09-27T01:10:34;99250.72;;;10.60;100.00
63654;BME280;49809;47.418;19.080;2022-09-27T01:31:13;99238.34;;;10.56;100.00
63654;BME280;49809;47.418;19.080;2022-09-27T01:34:41;99237.00;;;10.58;100.00
63654;BME280;49809;47.418;19.080;2022-09-27T01:42:30;99232.16;;;10.65;100.00
63654;BME280;49809;47.418;19.080;2022-09-27T01:45:55;99224.50;;;10.69;100.00
63654;BME280;49809;47.418;19.080;2022-09-27T01:49:16;99218.34;;;10.73;100.00
63654;BME280;49809;47.418;19.080;2022-09-27T01:52:26;99210.69;;;10.72;100.00
63654;BME280;49809;47.418;19.080;2022-09-27T01:55:35;99204.38;;;10.68;100.00
63654;BME280;49809;47.418;19.080;2022-09-27T01:58:47;99201.53;;;10.59;100.00
63654;BME280;49809;47.418;19.080;2022-09-27T02:01:53;99193.69;;;10.49;100.00
63654;BME280;49809;47.418;19.080;2022-09-27T02:05:05;99191.34;;;10.42;100.00
63654;BME280;49809;47.418;19.080;2022-09-27T02:08:42;99189.84;;;10.31;100.00
63654;BME280;49809;47.418;19.080;2022-09-27T02:12:02;99183.84;;;10.21;100.00
63654;BME280;49809;47.418;19.080;2022-09-27T02:15:12;99182.28;;;10.15;100.00
63654;BME280;49809;47.418;19.080;2022-09-27T02:18:31;99184.72;;;10.06;100.00
63654;BME280;49809;47.418;19.080;2022-09-27T02:22:18;99187.41;;;10.01;100.00
63654;BME280;49809;47.418;19.080;2022-09-27T02:25:54;99192.44;;;9.92;100.00
63654;BME280;49809;47.418;19.080;2022-09-27T02:29:38;99192.50;;;9.87;100.00
63654;BME280;49809;47.418;19.080;2022-09-27T02:32:46;99179.84;;;9.79;100.00
63654;BME280;49809;47.418;19.080;2022-09-27T02:35:52;99184.09;;;9.75;100.00
63654;BME280;49809;47.418;19.080;2022-09-27T02:39:20;99178.81;;;9.75;100.00
63654;BME280;49809;47.418;19.080;2022-09-27T02:42:32;99174.91;;;9.68;100.00
63654;BME280;49809;47.418;19.080;2022-09-27T03:05:50;99164.94;;;9.44;100.00
63654;BME280;49809;47.418;19.080;2022-09-27T03:08:56;99164.69;;;9.41;100.00
63654;BME280;49809;47.418;19.080;2022-09-27T03:12:02;99160.50;;;9.35;100.00
63654;BME280;49809;47.418;19.080;2022-09-27T03:15:09;99158.94;;;9.34;100.00
63654;BME280;49809;47.418;19.080;2022-09-27T03:18:19;99165.25;;;9.38;100.00
63654;BME280;49809;47.418;19.080;2022-09-27T03:21:48;99157.59;;;9.36;100.00
63654;BME280;49809;47.418;19.080;2022-09-27T03:25:15;99160.47;;;9.45;100.00
63654;BME280;49809;47.418;19.080;2022-09-27T03:28:39;99158.31;;;9.52;100.00
63654;BME280;49809;47.418;19.080;2022-09-27T03:32:03;99158.78;;;9.64;100.00
63654;BME280;49809;47.418;19.080;2022-09-27T03:35:14;99159.53;;;9.75;100.00
63654;BME280;49809;47.418;19.080;2022-09-27T03:38:18;99153.41;;;9.79;100.00
63654;BME280;49809;47.418;19.080;2022-09-27T03:41:45;99151.75;;;9.88;100.00
63654;BME280;49809;47.418;19.080;2022-09-27T03:45:09;99157.75;;;10.04;100.00
63654;BME280;49809;47.418;19.080;2022-09-27T03:48:15;99150.62;;;10.04;100.00
63654;BME280;49809;47.418;19.080;2022-09-27T03:51:38;99151.38;;;10.10;100.00
63654;BME280;49809;47.418;19.080;2022-09-27T03:54:46;99152.66;;;10.18;100.00
63654;BME280;49809;47.418;19.080;2022-09-27T03:58:11;99139.16;;;10.19;100.00
63654;BME280;49809;47.418;19.080;2022-09-27T04:01:55;99143.62;;;10.24;100.00
63654;BME280;49809;47.418;19.080;2022-09-27T04:05:26;99147.28;;;10.28;100.00
63654;BME280;49809;47.418;19.080;2022-09-27T04:08:33;99145.91;;;10.35;100.00
63654;BME280;49809;47.418;19.080;2022-09-27T04:11:37;99145.09;;;10.40;100.00
63654;BME280;49809;47.418;19.080;2022-09-27T04:14:43;99141.66;;;10.39;100.00
63654;BME280;49809;47.418;19.080;2022-09-27T04:18:04;99145.09;;;10.40;100.00
63654;BME280;49809;47.418;19.080;2022-09-27T04:21:34;99146.41;;;10.37;100.00
63654;BME280;49809;47.418;19.080;2022-09-27T04:24:58;99142.44;;;10.40;100.00
63654;BME280;49809;47.418;19.080;2022-09-27T04:28:24;99146.16;;;10.39;100.00
63654;BME280;49809;47.418;19.080;2022-09-27T04:31:49;99137.91;;;10.45;100.00
63654;BME280;49809;47.418;19.080;2022-09-27T04:35:17;99129.97;;;10.45;100.00
63654;BME280;49809;47.418;19.080;2022-09-27T04:38:39;99124.84;;;10.54;100.00
63654;BME280;49809;47.418;19.080;2022-09-27T04:41:45;99123.09;;;10.44;100.00
63654;BME280;49809;47.418;19.080;2022-09-27T04:44:55;99127.03;;;10.47;100.00
63654;BME280;49809;47.418;19.080;2022-09-27T04:48:39;99125.37;;;10.51;100.00
63654;BME280;49809;47.418;19.080;2022-09-27T04:51:45;99136.91;;;10.65;100.00
63654;BME280;49809;47.418;19.080;2022-09-27T04:54:51;99125.78;;;10.68;100.00
63654;BME280;49809;47.418;19.080;2022-09-27T04:58:16;99124.66;;;10.74;100.00
63654;BME280;49809;47.418;19.080;2022-09-27T05:01:19;99125.66;;;10.78;100.00
63654;BME280;49809;47.418;19.080;2022-09-27T05:04:50;99121.50;;;10.72;100.00
63654;BME280;49809;47.418;19.080;2022-09-27T05:07:54;99110.34;;;10.75;100.00
63654;BME280;49809;47.418;19.080;2022-09-27T05:11:18;99102.84;;;10.82;100.00
63654;BME280;49809;47.418;19.080;2022-09-27T05:14:34;99105.94;;;10.89;100.00
63654;BME280;49809;47.418;19.080;2022-09-27T05:17:39;99104.81;;;10.96;100.00
63654;BME280;49809;47.418;19.080;2022-09-27T05:20:57;99106.09;;;10.79;100.00
63654;BME280;49809;47.418;19.080;2022-09-27T05:24:01;99098.06;;;10.84;100.00
63654;BME280;49809;47.418;19.080;2022-09-27T05:27:26;99092.44;;;10.91;100.00
63654;BME280;49809;47.418;19.080;2022-09-27T05:30:33;99086.13;;;10.87;100.00
63654;BME280;49809;47.418;19.080;2022-09-27T05:33:42;99084.91;;;10.79;100.00
63654;BME280;49809;47.418;19.080;2022-09-27T05:36:48;99085.78;;;10.70;100.00
63654;BME280;49809;47.418;19.080;2022-09-27T05:40:17;99083.69;;;10.90;100.00
63654;BME280;49809;47.418;19.080;2022-09-27T05:44:01;99078.91;;;10.93;100.00
63654;BME280;49809;47.418;19.080;2022-09-27T05:47:31;99082.53;;;11.02;100.00
63654;BME280;49809;47.418;19.080;2022-09-27T05:50:34;99077.72;;;11.04;100.00
63654;BME280;49809;47.418;19.080;2022-09-27T05:53:40;99080.94;;;11.01;100.00
63654;BME280;49809;47.418;19.080;2022-09-27T05:56:44;99070.69;;;10.94;100.00
63654;BME280;49809;47.418;19.080;2022-09-27T05:59:50;99076.13;;;10.84;100.00
63654;BME280;49809;47.418;19.080;2022-09-27T06:03:05;99071.78;;;10.93;100.00
63654;BME280;49809;47.418;19.080;2022-09-27T06:06:14;99083.59;;;11.01;100.00
63654;BME280;49809;47.418;19.080;2022-09-27T06:10:15;99081.94;;;11.05;100.00
63654;BME280;49809;47.418;19.080;2022-09-27T06:13:19;99074.00;;;11.05;100.00
63654;BME280;49809;47.418;19.080;2022-09-27T06:17:09;99074.38;;;11.17;100.00
63654;BME280;49809;47.418;19.080;2022-09-27T06:20:21;99071.97;;;11.39;100.00
63654;BME280;49809;47.418;19.080;2022-09-27T06:23:28;99073.13;;;11.70;100.00
63654;BME280;49809;47.418;19.080;2022-09-27T06:27:31;99072.56;;;11.73;100.00
63654;BME280;49809;47.418;19.080;2022-09-27T06:30:58;99077.03;;;11.92;100.00
63654;BME280;49809;47.418;19.080;2022-09-27T06:35:04;99079.53;;;12.02;100.00
63654;BME280;49809;47.418;19.080;2022-09-27T06:38:27;99091.81;;;12.30;100.00
63654;BME280;49809;47.418;19.080;2022-09-27T06:41:54;99078.50;;;12.62;100.00
63654;BME280;49809;47.418;19.080;2022-09-27T06:45:17;99075.06;;;12.76;100.00
63654;BME280;49809;47.418;19.080;2022-09-27T06:49:06;99059.91;;;12.90;100.00
63654;BME280;49809;47.418;19.080;2022-09-27T06:52:38;99070.44;;;12.68;100.00
63654;BME280;49809;47.418;19.080;2022-09-27T06:55:51;99060.78;;;12.99;100.00
63654;BME280;49809;47.418;19.080;2022-09-27T06:58:57;99065.81;;;13.14;100.00
63654;BME280;49809;47.418;19.080;2022-09-27T07:02:25;99082.44;;;13.33;100.00
63654;BME280;49809;47.418;19.080;2022-09-27T07:05:30;99088.09;;;13.54;100.00
63654;BME280;49809;47.418;19.080;2022-09-27T07:08:35;99084.53;;;13.59;100.00
63654;BME280;49809;47.418;19.080;2022-09-27T07:11:40;99099.56;;;13.27;100.00
63654;BME280;49809;47.418;19.080;2022-09-27T07:14:49;99105.09;;;13.31;100.00
63654;BME280;49809;47.418;19.080;2022-09-27T07:17:57;99084.00;;;13.34;100.00
63654;BME280;49809;47.418;19.080;2022-09-27T07:21:01;99072.28;;;13.35;100.00
63654;BME280;49809;47.418;19.080;2022-09-27T07:24:06;99080.19;;;13.63;100.00
63654;BME280;49809;47.418;19.080;2022-09-27T07:27:09;99098.47;;;13.78;100.00
63654;BME280;49809;47.418;19.080;2022-09-27T07:30:13;99094.34;;;13.72;100.00
63654;BME280;49809;47.418;19.080;2022-09-27T07:33:17;99087.13;;;14.08;100.00
63654;BME280;49809;47.418;19.080;2022-09-27T07:36:23;99093.09;;;13.91;99.82
63654;BME280;49809;47.418;19.080;2022-09-27T07:39:28;99083.06;;;13.88;100.00
63654;BME280;49809;47.418;19.080;2022-09-27T07:42:32;99085.91;;;13.92;98.47
63654;BME280;49809;47.418;19.080;2022-09-27T07:45:35;99078.81;;;14.10;99.07
63654;BME280;49809;47.418;19.080;2022-09-27T07:48:38;99069.97;;;14.23;97.39
63654;BME280;49809;47.418;19.080;2022-09-27T07:51:43;99060.56;;;14.48;98.13
63654;BME280;49809;47.418;19.080;2022-09-27T07:54:49;99074.41;;;14.58;96.67
63654;BME280;49809;47.418;19.080;2022-09-27T07:58:04;99097.25;;;14.90;95.92
63654;BME280;49809;47.418;19.080;2022-09-27T08:01:43;99092.06;;;14.85;94.94
63654;BME280;49809;47.418;19.080;2022-09-27T08:04:58;99076.03;;;14.76;94.97
63654;BME280;49809;47.418;19.080;2022-09-27T08:08:21;99082.00;;;14.43;96.20
63654;BME280;49809;47.418;19.080;2022-09-27T08:11:24;99082.06;;;14.51;96.68
63654;BME280;49809;47.418;19.080;2022-09-27T08:14:29;99079.34;;;14.43;96.60
63654;BME280;49809;47.418;19.080;2022-09-27T08:17:33;99067.50;;;14.26;98.53
63654;BME280;49809;47.418;19.080;2022-09-27T08:20:37;99067.38;;;14.31;97.62
63654;BME280;49809;47.418;19.080;2022-09-27T08:23:48;99072.59;;;14.37;99.47
63654;BME280;49809;47.418;19.080;2022-09-27T08:26:51;99079.22;;;14.48;100.00
63654;BME280;49809;47.418;19.080;2022-09-27T08:29:54;99088.25;;;14.69;98.76
63654;BME280;49809;47.418;19.080;2022-09-27T08:33:00;99094.19;;;14.66;97.99
63654;BME280;49809;47.418;19.080;2022-09-27T08:36:13;99093.06;;;14.67;96.99
63654;BME280;49809;47.418;19.080;2022-09-27T08:39:36;99084.00;;;14.68;98.42
63654;BME280;49809;47.418;19.080;2022-09-27T08:42:49;99069.31;;;14.79;96.91
63654;BME280;49809;47.418;19.080;2022-09-27T08:49:57;99063.75;;;15.06;95.66
63654;BME280;49809;47.418;19.080;2022-09-27T08:56:47;99075.62;;;14.92;95.46
63654;BME280;49809;47.418;19.080;2022-09-27T09:00:10;99077.50;;;14.91;96.70
63654;BME280;49809;47.418;19.080;2022-09-27T09:03:27;99066.53;;;14.84;97.04
63654;BME280;49809;47.418;19.080;2022-09-27T09:09:53;99053.09;;;15.06;95.26
63654;BME280;49809;47.418;19.080;2022-09-27T09:13:19;99064.19;;;14.91;95.97
63654;BME280;49809;47.418;19.080;2022-09-27T09:22:57;99042.81;;;14.74;100.00
63654;BME280;49809;47.418;19.080;2022-09-27T09:30:22;99018.06;;;14.73;100.00
63654;BME280;49809;47.418;19.080;2022-09-27T09:33:33;99021.03;;;14.72;100.00
63654;BME280;49809;47.418;19.080;2022-09-27T09:40:25;98999.03;;;15.23;100.00
63654;BME280;49809;47.418;19.080;2022-09-27T09:50:47;99017.37;;;15.50;100.00
63654;BME280;49809;47.418;19.080;2022-09-27T09:53:56;99000.16;;;15.65;100.00
63654;BME280;49809;47.418;19.080;2022-09-27T09:57:35;99002.63;;;15.36;100.00
63654;BME280;49809;47.418;19.080;2022-09-27T10:01:09;98997.03;;;15.63;100.00
63654;BME280;49809;47.418;19.080;2022-09-27T10:04:35;98992.28;;;15.43;100.00
63654;BME280;49809;47.418;19.080;2022-09-27T10:07:44;98990.91;;;15.54;100.00
63654;BME280;49809;47.418;19.080;2022-09-27T10:10:49;98990.91;;;15.54;100.00
63654;BME280;49809;47.418;19.080;2022-09-27T10:13:54;98983.84;;;15.58;100.00
63654;BME280;49809;47.418;19.080;2022-09-27T10:17:00;98977.25;;;15.55;100.00
63654;BME280;49809;47.418;19.080;2022-09-27T10:20:20;98972.22;;;15.71;100.00
63654;BME280;49809;47.418;19.080;2022-09-27T10:23:28;98975.13;;;15.95;100.00
63654;BME280;49809;47.418;19.080;2022-09-27T10:26:49;98977.22;;;15.64;100.00
63654;BME280;49809;47.418;19.080;2022-09-27T10:30:33;98963.13;;;15.63;100.00
63654;BME280;49809;47.418;19.080;2022-09-27T10:34:03;98956.50;;;15.78;100.00
63654;BME280;49809;47.418;19.080;2022-09-27T10:37:22;98956.16;;;15.88;100.00
63654;BME280;49809;47.418;19.080;2022-09-27T10:40:35;98953.44;;;16.05;100.00
63654;BME280;49809;47.418;19.080;2022-09-27T10:43:39;98951.91;;;15.96;100.00
63654;BME280;49809;47.418;19.080;2022-09-27T10:47:08;98961.78;;;15.95;100.00
63654;BME280;49809;47.418;19.080;2022-09-27T10:50:23;98951.16;;;15.78;100.00
63654;BME280;49809;47.418;19.080;2022-09-27T10:53:49;98951.47;;;15.85;100.00
63654;BME280;49809;47.418;19.080;2022-09-27T10:56:54;98953.28;;;16.11;100.00
63654;BME280;49809;47.418;19.080;2022-09-27T11:03:30;98938.81;;;16.12;100.00
63654;BME280;49809;47.418;19.080;2022-09-27T11:06:34;98943.38;;;16.02;100.00
63654;BME280;49809;47.418;19.080;2022-09-27T11:09:49;98938.88;;;15.94;100.00
63654;BME280;49809;47.418;19.080;2022-09-27T11:13:18;98924.59;;;15.90;100.00
63654;BME280;49809;47.418;19.080;2022-09-27T11:20:01;98926.00;;;15.96;100.00
63654;BME280;49809;47.418;19.080;2022-09-27T11:23:50;98924.25;;;16.00;100.00
63654;BME280;49809;47.418;19.080;2022-09-27T11:38:08;98906.81;;;16.91;95.86
63654;BME280;49809;47.418;19.080;2022-09-27T11:45:19;98894.94;;;17.01;94.78
63654;BME280;49809;47.418;19.080;2022-09-27T12:03:03;98871.94;;;17.86;89.47
63654;BME280;49809;47.418;19.080;2022-09-27T12:09:57;98865.13;;;17.76;89.31
63654;BME280;49809;47.418;19.080;2022-09-27T12:13:04;98856.66;;;17.42;91.51
63654;BME280;49809;47.418;19.080;2022-09-27T12:16:15;98852.72;;;17.39;90.20
63654;BME280;49809;47.418;19.080;2022-09-27T12:19:27;98841.87;;;16.90;94.02
63654;BME280;49809;47.418;19.080;2022-09-27T12:22:47;98840.84;;;16.62;95.77
63654;BME280;49809;47.418;19.080;2022-09-27T12:26:14;98836.63;;;16.32;98.33
63654;BME280;49809;47.418;19.080;2022-09-27T12:29:25;98843.66;;;16.16;100.00
63654;BME280;49809;47.418;19.080;2022-09-27T12:36:23;98841.94;;;16.61;97.51
63654;BME280;49809;47.418;19.080;2022-09-27T12:52:35;98818.63;;;18.45;86.77
63654;BME280;49809;47.418;19.080;2022-09-27T13:10:14;98805.56;;;18.68;82.89
63654;BME280;49809;47.418;19.080;2022-09-27T13:13:28;98801.50;;;18.74;83.03
63654;BME280;49809;47.418;19.080;2022-09-27T13:16:46;98799.75;;;18.66;82.16
63654;BME280;49809;47.418;19.080;2022-09-27T13:24:01;98788.09;;;18.74;80.97
63654;BME280;49809;47.418;19.080;2022-09-27T13:33:46;98774.78;;;17.86;84.35
63654;BME280;49809;47.418;19.080;2022-09-27T13:36:51;98780.09;;;18.10;82.79
63654;BME280;49809;47.418;19.080;2022-09-27T13:43:38;98775.19;;;18.12;81.42
63654;BME280;49809;47.418;19.080;2022-09-27T13:50:50;98772.22;;;18.53;79.79
63654;BME280;49809;47.418;19.080;2022-09-27T13:54:03;98763.63;;;18.76;79.81
63654;BME280;49809;47.418;19.080;2022-09-27T14:01:16;98755.50;;;18.72;78.19
63654;BME280;49809;47.418;19.080;2022-09-27T14:07:27;98764.03;;;18.10;80.11
63654;BME280;49809;47.418;19.080;2022-09-27T14:10:38;98768.50;;;17.81;81.98
63654;BME280;49809;47.418;19.080;2022-09-27T14:13:45;98757.81;;;17.69;83.39
63654;BME280;49809;47.418;19.080;2022-09-27T14:16:51;98767.59;;;17.41;85.06
63654;BME280;49809;47.418;19.080;2022-09-27T14:20:43;98782.56;;;17.09;86.63
63654;BME280;49809;47.418;19.080;2022-09-27T14:23:49;98819.47;;;16.62;78.63
63654;BME280;49809;47.418;19.080;2022-09-27T14:31:25;98805.72;;;14.22;100.00
63654;BME280;49809;47.418;19.080;2022-09-27T14:34:35;98818.22;;;13.65;100.00
63654;BME280;49809;47.418;19.080;2022-09-27T14:37:40;98828.16;;;13.51;100.00
63654;BME280;49809;47.418;19.080;2022-09-27T14:41:08;98827.66;;;13.40;100.00
63654;BME280;49809;47.418;19.080;2022-09-27T14:44:17;98832.84;;;13.23;100.00
63654;BME280;49809;47.418;19.080;2022-09-27T14:47:23;98830.88;;;13.29;100.00
63654;BME280;49809;47.418;19.080;2022-09-27T14:50:29;98833.31;;;13.17;100.00
63654;BME280;49809;47.418;19.080;2022-09-27T14:53:36;98850.41;;;13.11;100.00
63654;BME280;49809;47.418;19.080;2022-09-27T14:56:47;98846.38;;;13.13;100.00
63654;BME280;49809;47.418;19.080;2022-09-27T14:59:55;98842.94;;;13.13;100.00
63654;BME280;49809;47.418;19.080;2022-09-27T15:03:27;98835.87;;;13.30;100.00
63654;BME280;49809;47.418;19.080;2022-09-27T15:06:44;98820.16;;;13.42;100.00
63654;BME280;49809;47.418;19.080;2022-09-27T15:09:49;98830.22;;;13.54;100.00
63654;BME280;49809;47.418;19.080;2022-09-27T15:13:16;98831.31;;;13.53;100.00
63654;BME280;49809;47.418;19.080;2022-09-27T15:16:46;98841.28;;;13.47;100.00
63654;BME280;49809;47.418;19.080;2022-09-27T15:20:18;98845.16;;;13.41;100.00
63654;BME280;49809;47.418;19.080;2022-09-27T15:23:44;98852.16;;;13.37;100.00
63654;BME280;49809;47.418;19.080;2022-09-27T15:26:49;98854.50;;;13.30;100.00
63654;BME280;49809;47.418;19.080;2022-09-27T15:29:55;98871.63;;;13.24;100.00
63654;BME280;49809;47.418;19.080;2022-09-27T15:33:04;98865.78;;;13.14;100.00
63654;BME280;49809;47.418;19.080;2022-09-27T15:36:12;98869.94;;;13.06;100.00
63654;BME280;49809;47.418;19.080;2022-09-27T15:39:40;98874.31;;;12.88;100.00
63654;BME280;49809;47.418;19.080;2022-09-27T15:43:00;98898.00;;;12.62;99.12
63654;BME280;49809;47.418;19.080;2022-09-27T15:46:35;98900.09;;;12.38;99.73
63654;BME280;49809;47.418;19.080;2022-09-27T15:56:40;98904.31;;;11.85;100.00
63654;BME280;49809;47.418;19.080;2022-09-27T15:59:54;98915.56;;;11.76;100.00
63654;BME280;49809;47.418;19.080;2022-09-27T16:02:58;98920.25;;;11.66;100.00
63654;BME280;49809;47.418;19.080;2022-09-27T16:06:24;98932.78;;;11.60;100.00
63654;BME280;49809;47.418;19.080;2022-09-27T16:09:48;98931.41;;;11.63;100.00
63654;BME280;49809;47.418;19.080;2022-09-27T16:13:23;98924.84;;;11.60;100.00
63654;BME280;49809;47.418;19.080;2022-09-27T16:16:56;98921.50;;;11.55;100.00
63654;BME280;49809;47.418;19.080;2022-09-27T16:20:22;98928.72;;;11.49;100.00
63654;BME280;49809;47.418;19.080;2022-09-27T16:23:46;98926.09;;;11.49;100.00
63654;BME280;49809;47.418;19.080;2022-09-27T16:26:57;98931.47;;;11.44;100.00
63654;BME280;49809;47.418;19.080;2022-09-27T16:30:04;98929.31;;;11.46;100.00
63654;BME280;49809;47.418;19.080;2022-09-27T16:33:11;98933.03;;;11.45;100.00
63654;BME280;49809;47.418;19.080;2022-09-27T16:36:14;98934.03;;;11.49;100.00
63654;BME280;49809;47.418;19.080;2022-09-27T16:39:21;98933.87;;;11.59;100.00
63654;BME280;49809;47.418;19.080;2022-09-27T16:42:34;98933.87;;;11.59;100.00
63654;BME280;49809;47.418;19.080;2022-09-27T16:45:42;98951.56;;;11.64;100.00
63654;BME280;49809;47.418;19.080;2022-09-27T16:48:47;98961.94;;;11.60;100.00
63654;BME280;49809;47.418;19.080;2022-09-27T16:51:51;98969.12;;;11.60;100.00
63654;BME280;49809;47.418;19.080;2022-09-27T16:55:03;98967.62;;;11.54;100.00
63654;BME280;49809;47.418;19.080;2022-09-27T16:58:08;98964.69;;;11.55;100.00
63654;BME280;49809;47.418;19.080;2022-09-27T17:01:14;98959.22;;;11.65;98.25
63654;BME280;49809;47.418;19.080;2022-09-27T17:04:19;98964.28;;;11.62;99.87
63654;BME280;49809;47.418;19.080;2022-09-27T17:07:26;98980.59;;;11.55;99.37
63654;BME280;49809;47.418;19.080;2022-09-27T17:10:30;98980.37;;;11.52;100.00
63654;BME280;49809;47.418;19.080;2022-09-27T17:13:35;98984.09;;;11.51;100.00
63654;BME280;49809;47.418;19.080;2022-09-27T17:16:40;98980.31;;;11.57;98.10
63654;BME280;49809;47.418;19.080;2022-09-27T17:19:43;98985.28;;;11.58;99.29
63654;BME280;49809;47.418;19.080;2022-09-27T17:22:46;98993.97;;;11.64;98.27
63654;BME280;49809;47.418;19.080;2022-09-27T17:25:49;98994.91;;;11.73;96.35
63654;BME280;49809;47.418;19.080;2022-09-27T17:28:52;98994.91;;;11.73;98.46
63654;BME280;49809;47.418;19.080;2022-09-27T17:31:59;98998.75;;;11.81;95.83
63654;BME280;49809;47.418;19.080;2022-09-27T17:35:03;98996.59;;;11.83;98.20
63654;BME280;49809;47.418;19.080;2022-09-27T17:38:09;98995.41;;;11.75;100.00
63654;BME280;49809;47.418;19.080;2022-09-27T17:41:14;99000.75;;;11.70;100.00
63654;BME280;49809;47.418;19.080;2022-09-27T17:44:21;98995.94;;;11.72;100.00
63654;BME280;49809;47.418;19.080;2022-09-27T17:47:26;98977.97;;;11.69;100.00
63654;BME280;49809;47.418;19.080;2022-09-27T17:50:52;98981.50;;;11.64;100.00
63654;BME280;49809;47.418;19.080;2022-09-27T17:54:21;98985.81;;;11.60;100.00
63654;BME280;49809;47.418;19.080;2022-09-27T17:57:29;98995.69;;;11.55;100.00
63654;BME280;49809;47.418;19.080;2022-09-27T18:00:33;98998.06;;;11.56;100.00
63654;BME280;49809;47.418;19.080;2022-09-27T18:03:38;98997.56;;;11.54;100.00
63654;BME280;49809;47.418;19.080;2022-09-27T18:06:44;98999.41;;;11.54;100.00
63654;BME280;49809;47.418;19.080;2022-09-27T18:09:48;99001.13;;;11.63;100.00
63654;BME280;49809;47.418;19.080;2022-09-27T18:12:55;99002.19;;;11.62;100.00
63654;BME280;49809;47.418;19.080;2022-09-27T18:15:58;99017.59;;;11.60;100.00
63654;BME280;49809;47.418;19.080;2022-09-27T18:19:05;99030.16;;;11.55;100.00
63654;BME280;49809;47.418;19.080;2022-09-27T18:22:09;99037.88;;;11.51;100.00
63654;BME280;49809;47.418;19.080;2022-09-27T18:25:12;99042.59;;;11.54;100.00
63654;BME280;49809;47.418;19.080;2022-09-27T18:28:17;99050.03;;;11.52;100.00
63654;BME280;49809;47.418;19.080;2022-09-27T18:31:21;99041.59;;;11.50;100.00
63654;BME280;49809;47.418;19.080;2022-09-27T18:34:25;99047.50;;;11.47;100.00
63654;BME280;49809;47.418;19.080;2022-09-27T18:38:22;99051.50;;;11.45;100.00
63654;BME280;49809;47.418;19.080;2022-09-27T18:41:32;99041.16;;;11.43;100.00
63654;BME280;49809;47.418;19.080;2022-09-27T18:44:41;99042.25;;;11.42;100.00
63654;BME280;49809;47.418;19.080;2022-09-27T18:47:48;99050.97;;;11.43;100.00
63654;BME280;49809;47.418;19.080;2022-09-27T18:50:50;99052.41;;;11.35;100.00
63654;BME280;49809;47.418;19.080;2022-09-27T18:57:00;99057.50;;;11.31;100.00
63654;BME280;49809;47.418;19.080;2022-09-27T19:00:07;99067.03;;;11.32;100.00
63654;BME280;49809;47.418;19.080;2022-09-27T19:03:30;99077.63;;;11.32;100.00
63654;BME280;49809;47.418;19.080;2022-09-27T19:06:55;99068.97;;;11.27;100.00
63654;BME280;49809;47.418;19.080;2022-09-27T19:10:17;99072.69;;;11.26;100.00
63654;BME280;49809;47.418;19.080;2022-09-27T19:13:25;99080.09;;;11.24;100.00
63654;BME280;49809;47.418;19.080;2022-09-27T19:16:32;99084.00;;;11.31;100.00
63654;BME280;49809;47.418;19.080;2022-09-27T19:19:36;99082.34;;;11.36;100.00
63654;BME280;49809;47.418;19.080;2022-09-27T19:22:38;99086.34;;;11.33;100.00
63654;BME280;49809;47.418;19.080;2022-09-27T19:25:42;99094.28;;;11.33;100.00
63654;BME280;49809;47.418;19.080;2022-09-27T19:28:45;99087.59;;;11.41;100.00
63654;BME280;49809;47.418;19.080;2022-09-27T19:31:53;99089.72;;;11.39;100.00
63654;BME280;49809;47.418;19.080;2022-09-27T19:34:57;99086.22;;;11.43;100.00
63654;BME280;49809;47.418;19.080;2022-09-27T19:38:23;99083.81;;;11.47;100.00
63654;BME280;49809;47.418;19.080;2022-09-27T19:41:29;99083.22;;;11.50;100.00
63654;BME280;49809;47.418;19.080;2022-09-27T19:44:33;99081.00;;;11.57;100.00
63654;BME280;49809;47.418;19.080;2022-09-27T19:47:37;99091.69;;;11.52;100.00
63654;BME280;49809;47.418;19.080;2022-09-27T19:50:41;99086.59;;;11.55;100.00